Scottsmoor, Florida
Current Conditions -  °F | °C
As of 4:58 PM on Sunday 23 Nov 2014 (Local Time) from KTTS Reporting Station
Clear Clear  
Wind Chill: 77°   Ceiling: Unl
Heat Index: 79°   Visibility: 10mi
Dew Point: 71°   Wind: 13mph
Humidity: 82%   Direction: 170°S
Pressure: 29.9"   Gusts: NA
Location:  28.77°N, 80.88°W
Report Text: KTTS 232158Z AUTO 17011KT 10SM CLR 25/22 A2990 RMK AO2 SLP128 T02510219 VISNO RWY33 CHINO RWY33 $
Loading
Personal Weather Stations






























Interactive Weather Map New forecast layout! Learn more

10-Day Weather Forecast

Advertisements
Track Severe Weather on mobile